Impacts TAF Board
For situational awareness. Not to be used for flight planning purposes.
IDs:

KORD - Chicago/O'Hare Intl, IL, US

Issued at 1501 UTC 20 Nov 2018
Updated at 1628 UTC 20 Nov 2018
Potential Impact None Slight Moderate High
Time<<21/17Z 21/18Z 21/19Z 21/20Z 21/21Z 21/22Z 21/23Z 22/00Z 22/01Z 22/02Z 22/03Z 22/04Z 22/05Z
Type PRVL
VIS >6
CIG 50
Cover BKN
FltCat VFR
WX --
WDir 10
WSpd 9
WGst --
Raw TAF
KORD 201501Z 2015/2118 31010KT P6SM SCT025 BKN040
  FM201700 27009KT P6SM SCT040
  FM202000 24012G17KT P6SM SCT045
  FM210100 24015G23KT P6SM BKN060
  FM210800 29008KT P6SM BKN050
  FM211600 01009KT P6SM BKN050


METAR Board
Radar Display
Forecast Discussion
For situational awareness. Not to be used for flight planning purposes.